Time;durP1;ratioP1;P1;durP2;ratioP2;P2;SDS_P1;SDS_P2;PMS_P1;PMS_P2;Temp;Humidity;BMP_temperature;BMP_pressure;BME280_temperature;BME280_humidity;BME280_pressure;Samples;Min_cycle;Max_cycle;Signal;HPM_P1;HPM_P2
2023/06/01 00:01:27;;;;;;;8.87;4.60;;;;;;;12.00;100.00;102535.41;4998740;28;20841;-71
2023/06/01 00:03:52;;;;;;;9.87;4.60;;;;;;;12.19;100.00;102523.50;4983738;28;20449;-71
2023/06/01 00:06:17;;;;;;;13.53;4.13;;;;;;;12.30;100.00;102581.53;4999988;28;20643;-71
2023/06/01 00:08:43;;;;;;;9.07;4.20;;;;;;;12.57;100.00;102626.94;5001208;28;20201;-71
2023/06/01 00:11:12;;;;;;;7.70;3.70;;;;;;;11.92;100.00;102530.06;5001895;28;20200;-71
2023/06/01 00:13:37;;;;;;;8.40;3.80;;;;;;;12.34;100.00;102594.47;4981501;28;20189;-70
2023/06/01 00:16:03;;;;;;;5.63;3.37;;;;;;;12.41;100.00;102592.78;5000863;28;20546;-71
2023/06/01 00:18:28;;;;;;;9.67;3.60;;;;;;;12.06;100.00;102515.09;4988406;28;20246;-70
2023/06/01 00:20:53;;;;;;;6.57;4.07;;;;;;;12.65;100.00;102609.94;4999254;28;20200;-71
2023/06/01 00:23:19;;;;;;;10.70;3.37;;;;;;;12.01;100.00;102537.13;4986000;28;20221;-70
2023/06/01 00:25:45;;;;;;;12.33;3.90;;;;;;;11.82;100.00;102472.88;4984893;28;20208;-71
2023/06/01 00:28:11;;;;;;;8.47;3.80;;;;;;;12.49;100.00;102608.09;4995166;28;21212;-71
2023/06/01 00:30:36;;;;;;;12.00;4.20;;;;;;;12.21;100.00;102551.09;5000358;28;20279;-71
2023/06/01 00:33:02;;;;;;;8.40;3.93;;;;;;;12.50;100.00;102600.84;5000196;28;20249;-70
2023/06/01 00:35:27;;;;;;;10.43;3.97;;;;;;;12.55;100.00;102610.09;4997249;28;20283;-71
2023/06/01 00:37:53;;;;;;;7.23;3.33;;;;;;;12.57;100.00;102601.88;4998531;28;20194;-70
2023/06/01 00:40:18;;;;;;;7.27;3.43;;;;;;;12.28;100.00;102565.53;4998498;28;20351;-70
2023/06/01 00:42:44;;;;;;;9.50;2.90;;;;;;;11.98;100.00;102513.25;5000040;28;20303;-71
2023/06/01 00:45:10;;;;;;;6.63;3.30;;;;;;;12.25;100.00;102530.91;4998773;28;20797;-71
2023/06/01 00:47:41;;;;;;;6.40;3.00;;;;;;;12.71;100.00;102608.44;4995525;28;20200;-71
2023/06/01 00:50:07;;;;;;;7.03;3.50;;;;;;;12.59;100.00;102581.84;4993898;28;20846;-70
2023/06/01 00:52:32;;;;;;;6.17;3.10;;;;;;;12.57;100.00;102605.41;4998678;28;20495;-71
2023/06/01 00:54:58;;;;;;;6.40;3.33;;;;;;;12.71;100.00;102603.88;4985235;28;20604;-71
2023/06/01 00:57:26;;;;;;;6.93;3.27;;;;;;;11.83;100.00;102488.84;4998791;28;20220;-71
2023/06/01 00:59:53;;;;;;;8.00;2.40;;;;;;;12.06;100.00;102512.41;5000019;28;20189;-70
2023/06/01 01:02:18;;;;;;;7.20;3.40;;;;;;;12.49;100.00;102601.88;4994634;28;20503;-70
2023/06/01 01:04:44;;;;;;;5.17;2.50;;;;;;;12.28;100.00;102578.16;4997719;28;20478;-70
2023/06/01 01:07:22;;;;;;;7.00;2.90;;;;;;;12.57;100.00;102599.19;4996974;28;20210;-70
2023/06/01 01:10:05;;;;;;;11.87;3.17;;;;;;;12.59;100.00;102605.25;4993834;28;20227;-70
2023/06/01 01:12:50;;;;;;;6.40;2.63;;;;;;;12.20;100.00;102539.47;4993462;28;21004;-70
2023/06/01 01:15:28;;;;;;;5.90;2.73;;;;;;;11.73;100.00;102505.13;4998618;28;20439;-70
2023/06/01 01:18:02;;;;;;;7.70;3.23;;;;;;;12.26;100.00;102588.22;4997184;28;20452;-70
2023/06/01 01:20:33;;;;;;;5.87;2.70;;;;;;;12.48;100.00;102603.72;4995233;28;20428;-70
2023/06/01 01:23:12;;;;;;;6.73;2.50;;;;;;;12.23;100.00;102564.34;4980934;28;20471;-71
2023/06/01 01:26:14;;;;;;;8.97;2.70;;;;;;;12.42;100.00;102609.78;4998599;28;20871;-70
2023/06/01 01:28:48;;;;;;;7.10;2.67;;;;;;;12.47;100.00;102610.13;4996387;28;20440;-70
2023/06/01 01:31:17;;;;;;;6.33;2.93;;;;;;;12.33;100.00;102600.84;4997942;28;20439;-70
2023/06/01 01:33:45;;;;;;;6.40;2.30;;;;;;;12.49;100.00;102609.94;4985645;28;20427;-70
2023/06/01 01:36:11;;;;;;;3.40;2.03;;;;;;;12.40;100.00;102609.94;4999020;28;20463;-71
2023/06/01 01:38:37;;;;;;;4.50;2.60;;;;;;;12.28;100.00;102615.81;4998782;28;20441;-72
2023/06/01 01:41:03;;;;;;;4.60;2.30;;;;;;;12.37;100.00;102615.66;4996535;28;21011;-70
2023/06/01 01:43:30;;;;;;;5.37;2.40;;;;;;;12.48;100.00;102616.34;4974693;28;20328;-70
2023/06/01 01:46:26;;;;;;;8.73;2.47;;;;;;;12.40;100.00;102609.09;4993603;28;20476;-70
2023/06/01 01:49:05;;;;;;;7.10;2.53;;;;;;;12.08;100.00;102548.03;4975798;28;20987;-70
2023/06/01 01:51:49;;;;;;;7.73;1.83;;;;;;;11.51;100.00;102468.97;4996645;28;20471;-71
2023/06/01 01:54:17;;;;;;;6.60;2.77;;;;;;;12.39;100.00;102616.34;4996682;28;20443;-70
2023/06/01 01:56:44;;;;;;;5.07;2.73;;;;;;;11.84;100.00;102521.94;4973652;28;20471;-70
2023/06/01 01:59:10;;;;;;;6.23;2.67;;;;;;;12.03;100.00;102563.84;4998013;28;20451;-70
2023/06/01 02:01:36;;;;;;;4.53;2.33;;;;;;;11.56;100.00;102489.13;4981531;28;20525;-70
2023/06/01 02:04:07;;;;;;;5.90;2.90;;;;;;;11.63;100.00;102507.13;4998392;28;20217;-70
2023/06/01 02:06:33;;;;;;;4.23;2.87;;;;;;;11.74;100.00;102508.63;4995922;28;20444;-70
2023/06/01 02:08:59;;;;;;;9.40;3.20;;;;;;;11.64;100.00;102489.16;4998636;28;20538;-71
2023/06/01 02:11:24;;;;;;;9.70;2.83;;;;;;;12.17;100.00;102569.38;4997971;28;20544;-71
2023/06/01 02:13:50;;;;;;;7.03;3.10;;;;;;;11.83;100.00;102514.88;4997616;28;20951;-71
2023/06/01 02:16:17;;;;;;;9.93;3.07;;;;;;;11.94;100.00;102517.25;5000987;28;20223;-71
2023/06/01 02:18:45;;;;;;;7.97;3.30;;;;;;;12.37;100.00;102631.78;4997961;28;20638;-71
2023/06/01 02:21:14;;;;;;;8.07;4.07;;;;;;;12.42;100.00;102640.22;4996570;28;20448;-71
2023/06/01 02:23:41;;;;;;;8.73;3.97;;;;;;;12.44;100.00;102635.53;4993646;28;20452;-71
2023/06/01 02:26:10;;;;;;;6.80;4.00;;;;;;;12.46;100.00;102631.81;4995671;28;20458;-71
2023/06/01 02:28:38;;;;;;;11.03;4.30;;;;;;;12.47;100.00;102633.47;4996688;28;20495;-71
2023/06/01 02:31:05;;;;;;;6.60;3.73;;;;;;;12.54;100.00;102632.66;5000223;28;21009;-71
2023/06/01 02:33:30;;;;;;;6.50;3.20;;;;;;;12.16;100.00;102573.09;4998958;28;20549;-71
2023/06/01 02:35:55;;;;;;;7.53;3.50;;;;;;;12.41;100.00;102624.22;4998390;28;20870;-71
2023/06/01 02:38:21;;;;;;;5.17;3.37;;;;;;;12.25;100.00;102640.38;4999247;28;20960;-71
2023/06/01 02:40:46;;;;;;;7.77;3.23;;;;;;;11.89;100.00;102587.69;4998707;28;20193;-71
2023/06/01 02:43:12;;;;;;;9.60;3.40;;;;;;;12.11;100.00;102623.84;4972896;28;20252;-71
2023/06/01 02:45:38;;;;;;;6.33;3.53;;;;;;;12.08;100.00;102581.16;4997441;28;20197;-71
2023/06/01 02:48:04;;;;;;;9.90;3.97;;;;;;;11.51;100.00;102506.59;4997261;28;20660;-71
2023/06/01 02:50:29;;;;;;;8.20;3.57;;;;;;;12.39;100.00;102589.41;4996830;28;20456;-71
2023/06/01 02:52:55;;;;;;;5.50;3.50;;;;;;;12.17;100.00;102603.53;4995740;28;20226;-70
2023/06/01 02:55:20;;;;;;;14.30;4.57;;;;;;;12.34;100.00;102656.34;4997609;28;20190;-71
2023/06/01 02:57:46;;;;;;;9.03;3.40;;;;;;;12.40;100.00;102665.59;5000133;28;20200;-70
2023/06/01 03:00:21;;;;;;;5.47;3.43;;;;;;;12.28;100.00;102653.50;4998983;28;20185;-70
2023/06/01 03:02:47;;;;;;;6.70;3.43;;;;;;;12.26;100.00;102675.16;4999136;28;20231;-71
2023/06/01 03:05:16;;;;;;;5.33;3.10;;;;;;;12.36;100.00;102667.81;5000822;28;20468;-71
2023/06/01 03:07:45;;;;;;;6.07;2.97;;;;;;;12.41;100.00;102660.06;5000401;28;20428;-70
2023/06/01 03:10:12;;;;;;;7.13;3.07;;;;;;;12.23;100.00;102645.06;5000595;28;20435;-70
2023/06/01 03:12:38;;;;;;;6.40;3.20;;;;;;;12.17;100.00;102666.22;5001230;28;20467;-71
2023/06/01 03:15:04;;;;;;;9.37;3.80;;;;;;;11.76;100.00;102600.72;5001582;28;20455;-71
2023/06/01 03:17:31;;;;;;;6.67;3.00;;;;;;;12.17;100.00;102674.31;5000765;28;20210;-71
2023/06/01 03:19:57;;;;;;;11.80;3.57;;;;;;;11.40;100.00;102543.66;4979217;28;20502;-70
2023/06/01 03:22:22;;;;;;;5.07;3.00;;;;;;;11.30;100.00;102515.06;5001760;28;21006;-70
2023/06/01 03:24:49;;;;;;;6.63;3.20;;;;;;;12.24;100.00;102689.78;5000519;28;20664;-71
2023/06/01 03:27:19;;;;;;;7.70;2.73;;;;;;;11.68;100.00;102571.97;4995930;28;20181;-71
2023/06/01 03:29:45;;;;;;;6.60;3.20;;;;;;;12.17;100.00;102665.41;4999310;28;20451;-70
2023/06/01 03:32:10;;;;;;;7.20;2.60;;;;;;;11.97;100.00;102641.47;5000115;28;20468;-70
2023/06/01 03:34:36;;;;;;;5.10;2.07;;;;;;;12.11;100.00;102661.50;5002262;28;20439;-71
2023/06/01 03:37:05;;;;;;;5.30;2.30;;;;;;;11.93;100.00;102637.44;4998143;28;20589;-70
2023/06/01 03:39:35;;;;;;;5.67;2.40;;;;;;;11.80;100.00;102626.25;4998221;28;20188;-71
2023/06/01 03:42:01;;;;;;;5.73;2.30;;;;;;;12.18;100.00;102651.78;5040638;23;20506;-70
2023/06/01 03:44:26;;;;;;;6.87;2.90;;;;;;;12.12;100.00;102656.97;5016987;28;20827;-70
2023/06/01 03:46:52;;;;;;;5.60;2.33;;;;;;;12.14;100.00;102650.44;5016744;28;20450;-70
2023/06/01 03:49:18;;;;;;;6.27;2.60;;;;;;;12.10;100.00;102654.47;5018014;28;20229;-69
2023/06/01 03:51:43;;;;;;;6.93;2.33;;;;;;;12.01;100.00;102655.44;5017392;28;20192;-70
2023/06/01 03:54:09;;;;;;;6.00;2.80;;;;;;;11.83;100.00;102628.66;5017336;28;21145;-69
2023/06/01 03:56:35;;;;;;;4.77;2.93;;;;;;;12.20;100.00;102681.22;5017371;28;20293;-70
2023/06/01 03:59:01;;;;;;;5.33;2.53;;;;;;;12.03;100.00;102676.78;5016219;28;20184;-70
2023/06/01 04:01:32;;;;;;;8.70;3.33;;;;;;;12.23;100.00;102688.13;5015662;28;20261;-69
2023/06/01 04:03:58;;;;;;;4.83;2.60;;;;;;;12.10;100.00;102685.91;5020385;28;21961;-69
2023/06/01 04:06:23;;;;;;;3.47;2.20;;;;;;;12.02;100.00;102681.34;5020719;28;20442;-70
2023/06/01 04:08:55;;;;;;;5.57;2.63;;;;;;;12.17;100.00;102711.13;5017391;28;20210;-68
2023/06/01 04:11:24;;;;;;;4.63;2.60;;;;;;;12.20;100.00;102721.56;5003034;28;20509;-69
2023/06/01 04:13:50;;;;;;;6.57;2.87;;;;;;;12.17;100.00;102711.13;5020710;28;20450;-70
2023/06/01 04:16:16;;;;;;;5.27;2.43;;;;;;;12.07;100.00;102713.97;5020321;28;21161;-70
2023/06/01 04:18:42;;;;;;;5.37;3.23;;;;;;;12.37;100.00;102739.44;5019757;28;20717;-69
2023/06/01 04:21:08;;;;;;;5.93;2.40;;;;;;;12.11;100.00;102752.13;5016735;28;20657;-70
2023/06/01 04:23:34;;;;;;;6.03;2.67;;;;;;;12.09;100.00;102755.00;5018256;28;20835;-69
2023/06/01 04:26:00;;;;;;;6.30;2.50;;;;;;;12.25;100.00;102774.91;5016371;28;20452;-70
2023/06/01 04:28:29;;;;;;;7.57;2.37;;;;;;;12.14;100.00;102755.34;5014067;28;20211;-69
2023/06/01 04:30:56;;;;;;;5.77;2.50;;;;;;;12.29;100.00;102782.47;5013480;28;20205;-69
2023/06/01 04:33:24;;;;;;;3.00;1.80;;;;;;;12.08;100.00;102785.56;5019043;28;20536;-70
2023/06/01 04:35:52;;;;;;;3.57;1.97;;;;;;;12.19;100.00;102792.53;5012312;28;20483;-69
2023/06/01 04:38:19;;;;;;;5.43;2.00;;;;;;;12.05;100.00;102818.19;5016432;28;20435;-69
2023/06/01 04:40:46;;;;;;;4.53;2.30;;;;;;;12.07;100.00;102826.09;5015773;28;20498;-69
2023/06/01 04:43:12;;;;;;;5.00;2.57;;;;;;;11.54;100.00;102791.13;5017279;28;20935;-70
2023/06/01 04:45:38;;;;;;;2.83;1.93;;;;;;;12.08;100.00;102860.06;5014169;28;20447;-69
2023/06/01 04:48:08;;;;;;;5.80;2.00;;;;;;;12.20;100.00;102858.78;5002315;28;20682;-69
2023/06/01 04:50:34;;;;;;;2.97;1.73;;;;;;;12.02;100.00;102872.28;5016517;28;20872;-69
2023/06/01 04:53:00;;;;;;;1.90;1.67;;;;;;;11.98;100.00;102863.69;5001469;28;20547;-70
2023/06/01 04:55:26;;;;;;;3.50;1.97;;;;;;;12.06;100.00;102857.50;5012570;28;20443;-69
2023/06/01 04:57:52;;;;;;;7.83;2.27;;;;;;;12.10;100.00;102875.03;5017837;28;20444;-69
2023/06/01 05:00:18;;;;;;;7.10;2.67;;;;;;;11.54;100.00;102745.44;5004140;28;20196;-69
2023/06/01 05:02:46;;;;;;;4.17;2.20;;;;;;;11.87;100.00;102831.69;5016682;28;20216;-70
2023/06/01 05:05:12;;;;;;;3.30;1.93;;;;;;;12.24;100.00;102891.56;5001809;28;20443;-69
2023/06/01 05:07:39;;;;;;;3.00;1.60;;;;;;;12.31;100.00;102887.25;5017993;28;20451;-70
2023/06/01 05:10:09;;;;;;;3.93;2.30;;;;;;;12.32;100.00;102872.78;5016248;28;20451;-69
2023/06/01 05:12:36;;;;;;;3.70;1.87;;;;;;;12.32;100.00;102856.63;5019221;28;20981;-69
2023/06/01 05:15:04;;;;;;;2.50;1.87;;;;;;;12.07;100.00;102818.88;5016807;28;20451;-69
2023/06/01 05:17:29;;;;;;;2.77;1.63;;;;;;;12.00;100.00;102807.06;5018302;28;20470;-69
2023/06/01 05:19:56;;;;;;;4.63;2.00;;;;;;;12.19;100.00;102868.69;5017426;28;20444;-69
2023/06/01 05:22:22;;;;;;;4.57;2.40;;;;;;;11.97;100.00;102843.16;5019198;28;20294;-70
2023/06/01 05:24:48;;;;;;;3.30;2.20;;;;;;;12.17;100.00;102877.91;5019767;28;20443;-69
2023/06/01 05:27:14;;;;;;;2.87;1.83;;;;;;;11.82;100.00;102827.75;5020579;28;20428;-69
2023/06/01 05:29:39;;;;;;;4.30;2.17;;;;;;;12.18;100.00;102899.31;5020623;28;20231;-70
2023/06/01 05:32:05;;;;;;;3.73;2.60;;;;;;;12.30;100.00;102888.28;5018886;28;20593;-70
2023/06/01 05:34:30;;;;;;;3.23;1.90;;;;;;;11.84;100.00;102833.84;5020827;28;20195;-69
2023/06/01 05:36:56;;;;;;;4.80;2.20;;;;;;;11.70;100.00;102825.34;5003981;28;20479;-70
2023/06/01 05:39:27;;;;;;;5.00;1.93;;;;;;;12.10;100.00;102922.63;5019919;28;20188;-69
2023/06/01 05:41:53;;;;;;;2.67;1.70;;;;;;;11.88;100.00;102857.56;5018362;28;20248;-69
2023/06/01 05:44:18;;;;;;;4.93;2.00;;;;;;;11.44;100.00;102811.88;5018757;28;20431;-69
2023/06/01 05:46:44;;;;;;;4.57;1.70;;;;;;;11.73;100.00;102868.03;5019831;28;20420;-70
2023/06/01 05:49:09;;;;;;;3.10;1.60;;;;;;;12.32;100.00;102940.06;5008128;28;20192;-69
2023/06/01 05:51:37;;;;;;;3.43;1.63;;;;;;;11.80;100.00;102891.59;5021588;28;20283;-70
2023/06/01 05:54:04;;;;;;;5.87;1.97;;;;;;;11.50;100.00;102878.44;5023000;28;20234;-69
2023/06/01 05:56:30;;;;;;;4.40;2.10;;;;;;;12.21;100.00;102957.34;5000698;28;20479;-70
2023/06/01 05:58:56;;;;;;;2.70;1.30;;;;;;;11.47;100.00;102889.50;5019310;28;20466;-69
2023/06/01 06:01:22;;;;;;;2.60;1.43;;;;;;;12.09;100.00;102961.25;5021689;28;20450;-69
2023/06/01 06:03:47;;;;;;;4.27;1.80;;;;;;;12.04;100.00;102910.63;5019546;28;20186;-69
2023/06/01 06:06:13;;;;;;;3.10;1.23;;;;;;;12.02;100.00;102901.03;5021387;28;20416;-70
2023/06/01 06:08:38;;;;;;;3.00;1.50;;;;;;;11.99;100.00;102859.16;5020224;28;20196;-69
2023/06/01 06:11:04;;;;;;;3.50;1.50;;;;;;;11.80;100.00;102824.38;5019483;28;20421;-70
2023/06/01 06:13:29;;;;;;;2.50;1.47;;;;;;;11.94;100.00;102829.22;5019081;28;20694;-69
2023/06/01 06:15:55;;;;;;;3.33;1.47;;;;;;;11.78;100.00;102784.22;5018596;28;20217;-70
2023/06/01 06:18:21;;;;;;;1.90;1.40;;;;;;;12.15;100.00;102831.50;5008337;28;20197;-70
2023/06/01 06:20:47;;;;;;;2.27;1.50;;;;;;;12.37;100.00;102816.63;5020746;28;20476;-70
2023/06/01 06:23:12;;;;;;;2.97;1.40;;;;;;;12.33;100.00;102804.53;5020078;28;20653;-69
2023/06/01 06:25:40;;;;;;;5.30;1.50;;;;;;;11.92;100.00;102772.06;5019150;28;20196;-69
2023/06/01 06:28:05;;;;;;;4.07;1.40;;;;;;;12.40;100.00;102846.75;5008555;28;20224;-70
2023/06/01 06:30:31;;;;;;;4.07;1.60;;;;;;;12.12;100.00;102840.75;5019075;28;20451;-70
2023/06/01 06:32:56;;;;;;;4.33;2.10;;;;;;;11.72;100.00;102790.25;5016750;28;20211;-69
2023/06/01 06:35:21;;;;;;;5.27;1.50;;;;;;;12.27;100.00;102867.91;5018057;28;20212;-69
2023/06/01 06:37:47;;;;;;;3.10;1.63;;;;;;;12.30;100.00;102880.19;5019874;28;20291;-69
2023/06/01 06:40:13;;;;;;;3.30;1.50;;;;;;;11.95;100.00;102838.97;5020124;28;20188;-69
2023/06/01 06:42:38;;;;;;;4.50;1.70;;;;;;;12.35;100.00;102932.53;5019695;28;20243;-70
2023/06/01 06:45:05;;;;;;;4.20;1.67;;;;;;;12.51;100.00;102923.69;5018765;28;20200;-70
2023/06/01 06:47:30;;;;;;;4.13;1.97;;;;;;;12.50;100.00;102902.31;5019011;28;20181;-70
2023/06/01 06:49:56;;;;;;;3.40;1.70;;;;;;;12.21;100.00;102872.06;5018434;28;20434;-69
2023/06/01 06:52:22;;;;;;;2.73;1.60;;;;;;;11.94;100.00;102834.59;5009000;28;20204;-70
2023/06/01 06:54:47;;;;;;;2.07;1.40;;;;;;;11.81;100.00;102805.41;5018947;28;20485;-70
2023/06/01 06:57:13;;;;;;;4.20;1.57;;;;;;;11.44;100.00;102733.13;5017990;28;20226;-68
2023/06/01 06:59:38;;;;;;;3.07;2.23;;;;;;;12.13;100.00;102803.94;5000669;28;20275;-69
2023/06/01 07:02:04;;;;;;;2.30;1.47;;;;;;;12.54;100.00;102834.53;5019436;28;20211;-69
2023/06/01 07:04:30;;;;;;;4.97;1.90;;;;;;;12.42;100.00;102827.78;5019628;28;20192;-69
2023/06/01 07:06:55;;;;;;;3.50;2.10;;;;;;;12.30;100.00;102789.53;5018474;28;20450;-69
2023/06/01 07:09:21;;;;;;;2.20;1.60;;;;;;;12.38;100.00;102823.69;5018601;28;20230;-69
2023/06/01 07:11:47;;;;;;;4.93;2.10;;;;;;;11.69;100.00;102716.13;5019419;28;20208;-69
2023/06/01 07:14:13;;;;;;;3.60;1.60;;;;;;;12.40;100.00;102864.75;5018540;28;20239;-69
2023/06/01 07:16:39;;;;;;;3.37;1.70;;;;;;;12.34;100.00;102860.84;5019291;28;20948;-69
2023/06/01 07:19:05;;;;;;;4.73;1.90;;;;;;;12.21;100.00;102852.41;5017420;28;20561;-69
2023/06/01 07:21:30;;;;;;;5.07;2.03;;;;;;;12.26;100.00;102876.13;5017153;28;20208;-69
2023/06/01 07:23:56;;;;;;;6.73;2.37;;;;;;;12.26;100.00;102906.56;5018650;28;20200;-69
2023/06/01 07:26:25;;;;;;;4.93;2.40;;;;;;;12.20;100.00;102899.97;5016384;28;20186;-69
2023/06/01 07:28:52;;;;;;;8.57;2.60;;;;;;;11.20;100.00;102749.91;5019436;28;20184;-69
2023/06/01 07:31:18;;;;;;;6.33;2.73;;;;;;;12.19;100.00;102859.78;5018071;28;21237;-69
2023/06/01 07:33:44;;;;;;;5.13;2.70;;;;;;;11.65;100.00;102765.81;5018920;28;20424;-69
2023/06/01 07:36:09;;;;;;;8.20;3.50;;;;;;;11.53;100.00;102716.03;5019022;28;20212;-69
2023/06/01 07:38:35;;;;;;;7.13;2.60;;;;;;;12.33;100.00;102802.69;5017526;28;20246;-69
2023/06/01 07:41:01;;;;;;;7.80;2.47;;;;;;;12.07;100.00;102778.53;5019858;28;20215;-68
2023/06/01 07:43:27;;;;;;;8.53;3.07;;;;;;;12.26;100.00;102771.19;5003031;28;20184;-69
2023/06/01 07:45:52;;;;;;;4.13;2.00;;;;;;;12.32;100.00;102749.00;5022029;28;20208;-69
2023/06/01 07:48:18;;;;;;;9.03;2.83;;;;;;;11.79;100.00;102674.84;5021957;28;20211;-69
2023/06/01 07:50:43;;;;;;;5.50;2.77;;;;;;;11.36;100.00;102623.75;5021897;28;20251;-69
2023/06/01 07:53:09;;;;;;;8.67;2.90;;;;;;;12.30;100.00;102719.59;5022214;28;20243;-71
2023/06/01 07:55:34;;;;;;;4.23;2.37;;;;;;;12.18;100.00;102683.25;5023093;28;20646;-68
2023/06/01 07:58:00;;;;;;;9.70;3.00;;;;;;;12.21;100.00;102683.75;5021734;28;20184;-69
2023/06/01 08:00:26;;;;;;;6.03;2.87;;;;;;;12.37;100.00;102719.75;5021819;28;20184;-69
2023/06/01 08:02:52;;;;;;;6.23;2.60;;;;;;;11.38;100.00;102569.84;5023371;28;20211;-69
2023/06/01 08:05:18;;;;;;;6.07;3.30;;;;;;;12.20;100.00;102654.31;5019498;28;20462;-69
2023/06/01 08:07:45;;;;;;;8.30;3.27;;;;;;;12.53;100.00;102686.66;5021992;28;20562;-69
2023/06/01 08:10:13;;;;;;;7.37;3.30;;;;;;;12.48;100.00;102686.31;5022618;28;20423;-69
2023/06/01 08:12:39;;;;;;;8.80;3.50;;;;;;;12.05;100.00;102710.59;5020632;28;20474;-71
2023/06/01 08:15:05;;;;;;;6.63;2.97;;;;;;;12.36;100.00;102700.09;5020068;28;20446;-69
2023/06/01 08:17:31;;;;;;;9.93;3.13;;;;;;;12.47;100.00;102720.47;5003727;28;20663;-70
2023/06/01 08:19:56;;;;;;;16.13;4.10;;;;;;;12.40;100.00;102712.19;5022993;28;20446;-69
2023/06/01 08:22:23;;;;;;;5.80;2.87;;;;;;;12.41;100.00;102665.47;5022624;28;20291;-70
2023/06/01 08:24:51;;;;;;;6.30;2.50;;;;;;;12.42;100.00;102679.75;5021460;28;20188;-69
2023/06/01 08:27:23;;;;;;;4.80;2.60;;;;;;;12.58;100.00;102646.59;5019050;28;20522;-69
2023/06/01 08:29:49;;;;;;;5.13;2.57;;;;;;;12.63;100.00;102649.66;5021167;28;20557;-69
2023/06/01 08:32:16;;;;;;;5.97;2.77;;;;;;;12.70;100.00;102630.97;5017439;28;20865;-69
2023/06/01 08:34:46;;;;;;;9.83;3.07;;;;;;;12.76;100.00;102617.69;5019440;28;20910;-69
2023/06/01 08:37:13;;;;;;;7.43;2.80;;;;;;;12.77;100.00;102618.50;5021748;28;20550;-69
2023/06/01 08:39:39;;;;;;;8.47;2.97;;;;;;;12.72;100.00;102594.78;5022016;28;20976;-69
2023/06/01 08:42:08;;;;;;;6.40;2.37;;;;;;;12.70;100.00;102602.22;5016533;28;20562;-69
2023/06/01 08:44:39;;;;;;;8.20;2.40;;;;;;;12.47;100.00;102604.75;5023481;28;20185;-69
2023/06/01 08:47:05;;;;;;;10.13;2.70;;;;;;;12.41;100.00;102608.06;5019606;28;20515;-69
2023/06/01 08:49:32;;;;;;;9.90;3.20;;;;;;;12.19;100.00;102551.25;5020214;28;20447;-67
2023/06/01 08:52:02;;;;;;;11.13;2.93;;;;;;;12.30;100.00;102560.00;5021988;28;20443;-69
2023/06/01 08:54:30;;;;;;;6.17;2.60;;;;;;;11.97;100.00;102512.38;5018513;28;20527;-70
2023/06/01 08:56:59;;;;;;;7.87;2.20;;;;;;;12.30;100.00;102566.22;5020863;28;20478;-69
2023/06/01 08:59:25;;;;;;;6.23;2.53;;;;;;;11.45;100.00;102493.78;5020173;28;20466;-69
2023/06/01 09:01:52;;;;;;;8.07;2.10;;;;;;;12.49;100.00;102656.53;5020986;28;20459;-69
2023/06/01 09:04:18;;;;;;;11.30;2.53;;;;;;;12.58;100.00;102652.84;5020083;28;20510;-69
2023/06/01 09:06:43;;;;;;;4.40;2.20;;;;;;;12.74;100.00;102656.56;5019067;28;20543;-69
2023/06/01 09:09:12;;;;;;;7.17;2.40;;;;;;;12.84;100.00;102651.81;5020283;28;20192;-69
2023/06/01 09:11:37;;;;;;;7.13;3.40;;;;;;;12.15;100.00;102524.84;5020220;28;20193;-69
2023/06/01 09:14:21;;;;;;;7.93;2.73;;;;;;;12.28;100.00;102546.69;5019614;28;20478;-70
2023/06/01 09:16:47;;;;;;;9.90;2.27;;;;;;;12.75;100.00;102620.53;5020484;28;20208;-69
2023/06/01 09:19:12;;;;;;;5.27;2.50;;;;;;;12.70;100.00;102585.19;5018462;28;21147;-69
2023/06/01 09:21:38;;;;;;;4.93;2.03;;;;;;;11.93;100.00;102459.13;5020392;28;20450;-69
2023/06/01 09:24:22;;;;;;;7.20;2.57;;;;;;;12.83;100.00;102598.97;5018194;28;20193;-70
2023/06/01 09:26:50;;;;;;;5.10;2.20;;;;;;;12.04;100.00;102463.34;5021641;28;20265;-69
2023/06/01 09:29:18;;;;;;;6.80;2.50;;;;;;;12.91;100.00;102573.91;5019871;28;20465;-69
2023/06/01 09:31:47;;;;;;;5.43;2.23;;;;;;;12.59;100.00;102502.94;5022557;28;20459;-69
2023/06/01 09:34:20;;;;;;;7.40;2.43;;;;;;;12.98;100.00;102570.31;5019962;28;20440;-69
2023/06/01 09:36:51;;;;;;;5.10;2.30;;;;;;;12.74;100.00;102533.53;5018770;28;20472;-69
2023/06/01 09:39:20;;;;;;;8.00;3.13;;;;;;;12.78;100.00;102553.69;5019759;28;20474;-69
2023/06/01 09:41:51;;;;;;;8.23;2.77;;;;;;;12.76;100.00;102579.97;5018808;28;21003;-69
2023/06/01 09:44:28;;;;;;;7.27;2.53;;;;;;;12.73;100.00;102576.78;5018542;28;20509;-69
2023/06/01 09:47:02;;;;;;;7.70;2.60;;;;;;;12.47;100.00;102560.81;5013820;28;20434;-69
2023/06/01 09:49:32;;;;;;;9.40;2.50;;;;;;;12.86;100.00;102595.94;5014339;28;20451;-69
2023/06/01 09:52:03;;;;;;;4.80;2.03;;;;;;;12.63;100.00;102598.50;5017254;28;20838;-69
2023/06/01 09:54:30;;;;;;;6.17;2.30;;;;;;;12.77;100.00;102603.19;5002550;28;20448;-69
2023/06/01 09:56:57;;;;;;;8.03;2.73;;;;;;;12.92;100.00;102602.50;4999847;28;20540;-69
2023/06/01 09:59:25;;;;;;;9.00;2.37;;;;;;;12.64;100.00;102557.09;5015657;28;20471;-69
2023/06/01 10:01:52;;;;;;;6.87;2.47;;;;;;;12.89;100.00;102607.22;5016521;28;20477;-69
2023/06/01 10:04:22;;;;;;;6.00;2.63;;;;;;;12.80;100.00;102565.16;5016081;28;20447;-69
2023/06/01 10:06:51;;;;;;;8.57;3.07;;;;;;;13.03;100.00;102565.25;5012723;28;20453;-69
2023/06/01 10:09:19;;;;;;;9.30;3.10;;;;;;;13.06;100.00;102539.84;5014070;28;20439;-69
2023/06/01 10:11:47;;;;;;;9.63;1.83;;;;;;;13.12;100.00;102536.44;5019121;28;20475;-69
2023/06/01 10:14:12;;;;;;;5.90;2.50;;;;;;;12.77;100.00;102440.81;5015160;28;20489;-69
2023/06/01 10:16:40;;;;;;;4.80;2.53;;;;;;;13.05;100.00;102512.06;4998198;28;20849;-69
2023/06/01 10:19:07;;;;;;;6.93;2.20;;;;;;;13.17;100.00;102527.84;5020575;28;20267;-69
2023/06/01 10:21:33;;;;;;;4.40;1.93;;;;;;;12.60;100.00;102411.25;5015825;28;21445;-70
2023/06/01 10:23:59;;;;;;;7.27;2.30;;;;;;;12.94;100.00;102498.97;5017215;28;20462;-70
2023/06/01 10:26:27;;;;;;;6.23;2.57;;;;;;;12.75;100.00;102449.03;5000018;28;20929;-69
2023/06/01 10:28:55;;;;;;;5.20;2.07;;;;;;;12.99;100.00;102483.13;5017943;28;20208;-69
2023/06/01 10:31:42;;;;;;;9.43;2.47;;;;;;;13.05;100.00;102500.47;5018771;28;20447;-69
2023/06/01 10:34:10;;;;;;;5.80;1.80;;;;;;;12.94;100.00;102471.22;5018592;28;20443;-69
2023/06/01 10:36:51;;;;;;;5.07;1.90;;;;;;;13.00;100.00;102500.13;5017838;28;20464;-70
2023/06/01 10:39:29;;;;;;;5.23;2.50;;;;;;;13.15;100.00;102505.63;5019684;28;21040;-69
2023/06/01 10:42:19;;;;;;;8.20;2.20;;;;;;;13.23;100.00;102495.66;4978287;28;1135312;-69
2023/06/01 10:44:45;;;;;;;6.47;2.20;;;;;;;13.14;100.00;102479.72;5018404;28;20177;-69
2023/06/01 10:47:11;;;;;;;7.33;2.53;;;;;;;13.26;100.00;102484.53;5014668;28;20530;-69
2023/06/01 10:49:49;;;;;;;4.87;2.07;;;;;;;13.33;100.00;102503.53;5019500;28;20518;-70
2023/06/01 10:52:38;;;;;;;6.13;2.00;;;;;;;13.23;100.00;102498.34;5019835;28;20208;-69
2023/06/01 10:55:06;;;;;;;6.40;2.07;;;;;;;13.14;100.00;102498.56;5018045;28;20469;-69
2023/06/01 10:57:51;;;;;;;4.13;2.33;;;;;;;12.99;100.00;102485.84;5020103;28;20468;-69
2023/06/01 11:00:27;;;;;;;4.80;2.13;;;;;;;12.89;100.00;102474.41;5020319;28;20419;-69
2023/06/01 11:02:56;;;;;;;3.50;1.60;;;;;;;13.24;100.00;102499.19;5019429;28;20415;-69
2023/06/01 11:05:51;;;;;;;7.90;2.53;;;;;;;13.21;100.00;102502.22;5016753;28;20454;-70
2023/06/01 11:08:20;;;;;;;10.20;2.83;;;;;;;13.16;100.00;102500.03;5008810;28;20922;-70
2023/06/01 11:10:59;;;;;;;8.47;2.67;;;;;;;13.16;100.00;102505.44;5018783;28;20937;-69
2023/06/01 11:13:27;;;;;;;7.43;2.60;;;;;;;13.17;100.00;102509.81;5018725;28;20415;-70
2023/06/01 11:16:09;;;;;;;8.87;1.87;;;;;;;13.17;100.00;102504.44;5020070;28;20824;-70
2023/06/01 11:18:44;;;;;;;5.83;2.30;;;;;;;13.29;100.00;102489.59;5018605;28;20445;-70
2023/06/01 11:21:26;;;;;;;6.03;2.27;;;;;;;13.33;100.00;102496.28;5021699;28;20449;-70